createdAt,value
2023-01-10T00:01:08.987Z,59.35
2023-01-10T00:03:12.321Z,59.47
2023-01-10T00:05:14.469Z,59.55
2023-01-10T00:07:16.251Z,59.53
2023-01-10T00:09:18.163Z,59.68
2023-01-10T00:11:29.269Z,59.93
2023-01-10T00:13:31.043Z,59.57
2023-01-10T00:15:33.803Z,59.99
2023-01-10T00:17:35.578Z,59.76
2023-01-10T00:19:37.474Z,59.44
2023-01-10T00:21:39.968Z,59.57
2023-01-10T00:23:43.476Z,60.04
2023-01-10T00:25:45.286Z,60.31
2023-01-10T00:27:55.373Z,60.39
2023-01-10T00:30:00.514Z,60.01
2023-01-10T00:32:02.381Z,60.81
2023-01-10T00:34:04.225Z,60.80
2023-01-10T00:36:07.874Z,60.90
2023-01-10T00:38:12.494Z,61.15
2023-01-10T00:40:14.621Z,60.92
2023-01-10T00:42:26.290Z,61.23
2023-01-10T00:44:28.160Z,61.11
2023-01-10T00:46:30.963Z,61.29
2023-01-10T00:48:32.772Z,61.09
2023-01-10T00:50:34.699Z,61.32
2023-01-10T00:52:36.499Z,61.42
2023-01-10T00:54:38.373Z,61.39
2023-01-10T00:56:40.477Z,61.18
2023-01-10T00:58:42.595Z,61.01
2023-01-10T01:00:49.960Z,61.26
2023-01-10T01:02:52.073Z,61.16
2023-01-10T01:04:53.942Z,60.92
2023-01-10T01:06:55.767Z,61.09
2023-01-10T01:08:58.005Z,61.29
2023-01-10T01:10:59.807Z,61.54
2023-01-10T01:13:08.330Z,61.25
2023-01-10T01:15:10.247Z,61.48
2023-01-10T01:17:12.284Z,61.53
2023-01-10T01:19:14.183Z,61.81
2023-01-10T01:21:16.049Z,61.80
2023-01-10T01:23:17.874Z,62.05
2023-01-10T01:25:19.782Z,62.10
2023-01-10T01:27:21.585Z,62.07
2023-01-10T01:29:26.227Z,61.87
2023-01-10T01:31:32.780Z,62.22
2023-01-10T01:33:35.036Z,62.20
2023-01-10T01:35:37.122Z,62.33
2023-01-10T01:37:38.923Z,62.69
2023-01-10T01:39:40.957Z,62.88
2023-01-10T01:41:52.325Z,62.92
2023-01-10T01:44:06.513Z,62.86
2023-01-10T01:46:08.295Z,63.01
2023-01-10T01:48:23.600Z,62.96
2023-01-10T01:50:32.257Z,63.18
2023-01-10T01:52:37.394Z,63.25
2023-01-10T01:54:39.609Z,63.00
2023-01-10T01:56:48.012Z,62.69
2023-01-10T01:58:52.392Z,62.53
2023-01-10T02:00:54.298Z,62.11
2023-01-10T02:03:02.916Z,62.38
2023-01-10T02:05:10.985Z,62.76
2023-01-10T02:07:13.982Z,62.73
2023-01-10T02:09:26.951Z,62.26
2023-01-10T02:11:30.242Z,62.03
2023-01-10T02:13:35.183Z,62.36
2023-01-10T02:15:37.057Z,61.77
2023-01-10T02:17:39.664Z,61.39
2023-01-10T02:19:50.795Z,61.55
2023-01-10T02:22:11.534Z,61.46
2023-01-10T02:24:24.029Z,61.67
2023-01-10T02:26:27.430Z,61.82
2023-01-10T02:28:51.755Z,61.90
2023-01-10T02:31:12.510Z,62.18
2023-01-10T02:33:23.723Z,62.40
2023-01-10T02:35:25.958Z,62.47
2023-01-10T02:37:37.165Z,62.94
2023-01-10T02:39:47.210Z,62.76
2023-01-10T02:42:04.405Z,63.54
2023-01-10T02:44:10.155Z,63.34
2023-01-10T02:46:18.601Z,63.19
2023-01-10T02:48:21.856Z,63.30
2023-01-10T02:50:28.123Z,63.38
2023-01-10T02:52:31.588Z,63.01
2023-01-10T02:54:33.484Z,63.20
2023-01-10T02:56:46.637Z,63.30
2023-01-10T02:59:07.553Z,63.42
2023-01-10T03:01:21.419Z,63.38
2023-01-10T03:03:33.842Z,63.60
2023-01-10T03:05:55.690Z,63.85
2023-01-10T03:08:07.949Z,63.96
2023-01-10T03:10:15.717Z,63.94
2023-01-10T03:12:27.279Z,64.06
2023-01-10T03:14:32.028Z,64.09
2023-01-10T03:16:37.128Z,64.02
2023-01-10T03:18:48.154Z,63.94
2023-01-10T03:20:52.617Z,64.23
2023-01-10T03:22:56.345Z,64.15
2023-01-10T03:25:01.502Z,64.38
2023-01-10T03:27:12.141Z,64.08
2023-01-10T03:29:19.401Z,63.94
2023-01-10T03:31:28.535Z,63.99
2023-01-10T03:33:33.198Z,63.81
2023-01-10T03:35:54.522Z,63.65
2023-01-10T03:38:04.051Z,63.85
2023-01-10T03:40:12.210Z,63.84
2023-01-10T03:42:28.048Z,63.45
2023-01-10T03:44:44.358Z,63.45
2023-01-10T03:46:54.618Z,63.40
2023-01-10T03:48:58.549Z,63.27
2023-01-10T03:51:03.860Z,63.28
2023-01-10T03:53:06.243Z,63.24
2023-01-10T03:55:12.003Z,63.15
2023-01-10T03:57:19.030Z,63.04
2023-01-10T03:59:24.851Z,62.81
2023-01-10T04:01:27.516Z,63.13
2023-01-10T04:03:29.543Z,63.00
2023-01-10T04:05:31.400Z,63.18
2023-01-10T04:07:33.318Z,62.57
2023-01-10T04:09:35.238Z,62.55
2023-01-10T04:11:37.468Z,62.34
2023-01-10T04:13:42.163Z,62.48
2023-01-10T04:15:43.957Z,62.32
2023-01-10T04:17:45.929Z,62.28
2023-01-10T04:19:47.771Z,62.10
2023-01-10T04:21:49.543Z,62.03
2023-01-10T04:23:51.333Z,62.02
2023-01-10T04:25:53.142Z,62.06
2023-01-10T04:27:54.964Z,62.08
2023-01-10T04:29:56.911Z,61.98
2023-01-10T04:31:58.892Z,61.83
2023-01-10T04:34:00.668Z,61.91
2023-01-10T04:36:02.880Z,62.55
2023-01-10T04:38:04.695Z,62.17
2023-01-10T04:40:07.563Z,62.08
2023-01-10T04:42:09.407Z,62.07
2023-01-10T04:44:12.900Z,61.77
2023-01-10T04:46:14.769Z,61.73
2023-01-10T04:48:17.233Z,62.01
2023-01-10T04:50:19.259Z,61.84
2023-01-10T04:52:21.344Z,61.98
2023-01-10T04:54:23.528Z,62.11
2023-01-10T04:56:25.654Z,61.83
2023-01-10T04:58:27.528Z,62.05
2023-01-10T05:00:29.396Z,61.93
2023-01-10T05:02:31.352Z,62.09
2023-01-10T05:04:33.221Z,62.48
2023-01-10T05:06:35.107Z,62.36
2023-01-10T05:08:36.954Z,62.24
2023-01-10T05:10:38.777Z,62.52
2023-01-10T05:12:40.712Z,62.42
2023-01-10T05:14:42.617Z,62.36
2023-01-10T05:16:44.625Z,62.46
2023-01-10T05:18:46.481Z,62.34
2023-01-10T05:20:48.478Z,62.72
2023-01-10T05:22:50.303Z,62.65
2023-01-10T05:24:54.509Z,62.62
2023-01-10T05:26:56.497Z,62.42
2023-01-10T05:28:58.326Z,62.72
2023-01-10T05:31:00.358Z,62.23
2023-01-10T05:33:04.815Z,62.89
2023-01-10T05:35:07.408Z,62.76
2023-01-10T05:37:09.228Z,63.04
2023-01-10T05:39:11.088Z,62.80
2023-01-10T05:41:13.039Z,62.95
2023-01-10T05:43:14.801Z,63.13
2023-01-10T05:45:16.771Z,63.13
2023-01-10T05:47:18.691Z,63.01
2023-01-10T05:49:20.491Z,63.44
2023-01-10T05:51:22.329Z,63.78
2023-01-10T05:53:24.197Z,63.73
2023-01-10T05:55:25.977Z,63.80
2023-01-10T05:57:27.783Z,63.57
2023-01-10T05:59:29.584Z,63.80
2023-01-10T06:01:31.470Z,64.45
2023-01-10T06:03:33.310Z,64.58
2023-01-10T06:05:35.174Z,64.30
2023-01-10T06:07:37.441Z,64.48
2023-01-10T06:09:39.246Z,64.49
2023-01-10T06:11:41.091Z,64.41
2023-01-10T06:13:42.881Z,64.21
2023-01-10T06:15:44.703Z,64.23
2023-01-10T06:17:46.631Z,64.56
2023-01-10T06:19:48.606Z,64.67
2023-01-10T06:21:50.487Z,64.30
2023-01-10T06:23:52.370Z,64.97
2023-01-10T06:25:54.203Z,64.89
2023-01-10T06:27:56.189Z,65.00
2023-01-10T06:29:59.681Z,65.19
2023-01-10T06:32:01.523Z,65.54
2023-01-10T06:34:03.401Z,65.46
2023-01-10T06:36:05.777Z,65.00
2023-01-10T06:38:07.807Z,65.08
2023-01-10T06:40:11.473Z,64.82
2023-01-10T06:42:13.822Z,65.16
2023-01-10T06:44:15.622Z,65.60
2023-01-10T06:46:19.687Z,66.29
2023-01-10T06:48:22.091Z,66.82
2023-01-10T06:50:24.226Z,66.59
2023-01-10T06:52:26.014Z,67.76
2023-01-10T06:54:27.855Z,67.50
2023-01-10T06:56:29.801Z,68.28
2023-01-10T06:58:32.498Z,68.36
2023-01-10T07:00:34.523Z,68.50
2023-01-10T07:02:37.381Z,69.31
2023-01-10T07:04:39.271Z,69.57
2023-01-10T07:06:41.779Z,69.24
2023-01-10T07:08:45.761Z,70.55
2023-01-10T07:10:47.587Z,70.70
2023-01-10T07:12:49.347Z,70.86
2023-01-10T07:14:51.176Z,71.33
2023-01-10T07:16:53.007Z,71.91
2023-01-10T07:18:54.869Z,71.80
2023-01-10T07:20:56.777Z,72.66
2023-01-10T07:23:00.484Z,73.14
2023-01-10T07:25:02.375Z,73.68
2023-01-10T07:27:04.555Z,73.94
2023-01-10T07:29:06.496Z,74.60
2023-01-10T07:31:08.350Z,74.13
2023-01-10T07:33:10.317Z,74.61
2023-01-10T07:35:12.282Z,74.78
2023-01-10T07:37:14.096Z,74.61
2023-01-10T07:39:15.947Z,75.47
2023-01-10T07:41:17.894Z,74.67
2023-01-10T07:43:19.699Z,75.65
2023-01-10T07:45:21.679Z,76.07
2023-01-10T07:47:23.496Z,75.97
2023-01-10T07:49:25.301Z,76.01
2023-01-10T07:51:27.177Z,76.16
2023-01-10T07:53:30.020Z,76.32
2023-01-10T07:55:34.779Z,76.60
2023-01-10T07:57:36.701Z,76.91
2023-01-10T07:59:38.597Z,77.50
2023-01-10T08:01:40.473Z,77.25
2023-01-10T08:03:42.856Z,77.21
2023-01-10T08:05:45.103Z,77.84
2023-01-10T08:07:47.066Z,78.04
2023-01-10T08:09:48.958Z,78.70
2023-01-10T08:11:50.869Z,79.00
2023-01-10T08:13:52.800Z,79.02
2023-01-10T08:15:55.181Z,79.30
2023-01-10T08:18:03.440Z,79.20
2023-01-10T08:20:07.665Z,79.76
2023-01-10T08:22:09.654Z,79.20
2023-01-10T08:24:11.827Z,79.91
2023-01-10T08:26:13.757Z,79.37
2023-01-10T08:28:15.845Z,79.33
2023-01-10T08:30:18.122Z,79.55
2023-01-10T08:32:20.089Z,80.11
2023-01-10T08:34:22.469Z,80.34
2023-01-10T08:36:24.516Z,80.08
2023-01-10T08:38:26.484Z,80.63
2023-01-10T08:40:28.543Z,80.69
2023-01-10T08:42:30.446Z,80.49
2023-01-10T08:44:32.381Z,79.63
2023-01-10T08:46:34.390Z,79.48
2023-01-10T08:48:36.329Z,79.04
2023-01-10T08:50:38.402Z,78.79
2023-01-10T08:52:40.358Z,78.56
2023-01-10T08:54:42.351Z,78.84
2023-01-10T08:56:44.429Z,78.51
2023-01-10T08:58:46.379Z,78.56
2023-01-10T09:00:49.703Z,80.03
2023-01-10T09:02:52.112Z,78.97
2023-01-10T09:04:54.025Z,79.45
2023-01-10T09:06:56.524Z,79.40
2023-01-10T09:08:59.376Z,79.87
2023-01-10T09:11:02.124Z,79.82
2023-01-10T09:13:05.120Z,79.96
2023-01-10T09:15:08.224Z,80.16
2023-01-10T09:17:10.144Z,80.77
2023-01-10T09:19:12.599Z,80.01
2023-01-10T09:21:14.552Z,81.16
2023-01-10T09:23:20.389Z,81.03
2023-01-10T09:25:23.354Z,81.24
2023-01-10T09:27:25.385Z,81.38
2023-01-10T09:29:27.406Z,82.57
2023-01-10T09:31:29.429Z,82.53
2023-01-10T09:33:45.298Z,82.18
2023-01-10T09:35:48.571Z,82.52
2023-01-10T09:37:50.990Z,82.44
2023-01-10T09:39:53.157Z,82.85
2023-01-10T09:42:03.073Z,82.53
2023-01-10T09:44:05.522Z,83.30
2023-01-10T09:46:26.530Z,83.19
2023-01-10T09:48:38.706Z,83.41
2023-01-10T09:51:00.954Z,83.58
2023-01-10T09:53:13.209Z,83.32
2023-01-10T09:55:27.563Z,83.15
2023-01-10T09:57:29.706Z,83.60
2023-01-10T09:59:38.156Z,83.90
2023-01-10T10:01:40.506Z,83.89
2023-01-10T10:03:55.851Z,83.49
2023-01-10T10:06:10.833Z,83.30
2023-01-10T10:08:18.103Z,83.60
2023-01-10T10:10:26.630Z,83.69
2023-01-10T10:12:37.890Z,84.05
2023-01-10T10:14:55.423Z,83.61
2023-01-10T10:17:12.947Z,83.26
2023-01-10T10:19:33.187Z,83.14
2023-01-10T10:21:54.405Z,84.17
2023-01-10T10:23:58.048Z,84.03
2023-01-10T10:26:16.471Z,84.48
2023-01-10T10:28:53.549Z,83.87
2023-01-10T10:31:02.987Z,84.52
2023-01-10T10:33:06.326Z,84.39
2023-01-10T10:35:18.489Z,85.21
2023-01-10T10:37:33.009Z,84.48
2023-01-10T10:39:42.807Z,84.72
2023-01-10T10:41:48.431Z,85.62
2023-01-10T10:43:51.890Z,84.81
2023-01-10T10:45:59.089Z,84.68
2023-01-10T10:48:13.067Z,85.04
2023-01-10T10:50:15.693Z,85.42
2023-01-10T10:52:24.585Z,84.97
2023-01-10T10:54:26.570Z,85.29
2023-01-10T10:56:28.524Z,85.08
2023-01-10T10:58:32.282Z,85.18
2023-01-10T11:00:34.306Z,85.32
2023-01-10T11:02:50.417Z,85.97
2023-01-10T11:04:56.053Z,85.92
2023-01-10T11:06:58.234Z,86.08
2023-01-10T11:09:04.926Z,85.75
2023-01-10T11:11:22.286Z,86.56
2023-01-10T11:13:35.405Z,85.96
2023-01-10T11:15:40.895Z,86.96
2023-01-10T11:17:43.186Z,87.08
2023-01-10T11:19:56.992Z,87.47
2023-01-10T11:22:03.868Z,87.44
2023-01-10T11:24:06.591Z,88.04
2023-01-10T11:26:23.698Z,87.84
2023-01-10T11:28:30.255Z,87.51
2023-01-10T11:30:33.752Z,88.41
2023-01-10T11:32:48.662Z,88.05
2023-01-10T11:34:54.297Z,87.50
2023-01-10T11:37:18.267Z,87.91
2023-01-10T11:39:20.235Z,88.91
2023-01-10T11:41:31.841Z,87.86
2023-01-10T11:43:37.920Z,87.49
2023-01-10T11:45:40.821Z,87.57
2023-01-10T11:47:45.934Z,89.04
2023-01-10T11:49:49.969Z,89.11
2023-01-10T11:51:56.172Z,90.24
2023-01-10T11:54:02.733Z,89.66
2023-01-10T11:56:07.147Z,88.80
2023-01-10T11:58:15.393Z,89.11
2023-01-10T12:00:20.700Z,88.62
2023-01-10T12:02:28.090Z,88.20
2023-01-10T12:04:33.436Z,89.05
2023-01-10T12:06:35.598Z,88.56
2023-01-10T12:08:42.745Z,89.16
2023-01-10T12:11:02.060Z,88.63
2023-01-10T12:13:15.045Z,88.41
2023-01-10T12:15:27.177Z,88.26
2023-01-10T12:17:34.273Z,88.54
2023-01-10T12:19:36.413Z,88.39
2023-01-10T12:21:44.226Z,89.45
2023-01-10T12:23:49.147Z,89.90
2023-01-10T12:26:00.292Z,89.65
2023-01-10T12:28:22.073Z,90.24
2023-01-10T12:30:33.657Z,90.08
2023-01-10T12:32:42.370Z,91.00
2023-01-10T12:34:50.942Z,91.48
2023-01-10T12:37:09.322Z,92.17
2023-01-10T12:39:21.417Z,92.00
2023-01-10T12:41:40.314Z,92.02
2023-01-10T12:43:54.585Z,92.71
2023-01-10T12:46:16.759Z,92.62
2023-01-10T12:48:42.546Z,92.88
2023-01-10T12:50:54.282Z,92.53
2023-01-10T12:53:13.596Z,92.10
2023-01-10T12:55:17.503Z,92.38
2023-01-10T12:57:34.909Z,92.98
2023-01-10T12:59:41.875Z,93.00
2023-01-10T13:01:49.989Z,92.68
2023-01-10T13:03:59.857Z,92.56
2023-01-10T13:06:02.587Z,92.35
2023-01-10T13:08:11.947Z,92.25
2023-01-10T13:10:19.131Z,92.08
2023-01-10T13:12:34.300Z,92.53
2023-01-10T13:14:46.815Z,92.19
2023-01-10T13:16:51.606Z,92.36
2023-01-10T13:19:02.984Z,91.67
2023-01-10T13:21:13.763Z,91.98
2023-01-10T13:23:24.488Z,90.94
2023-01-10T13:25:37.979Z,90.81
2023-01-10T13:27:40.078Z,90.77
2023-01-10T13:29:43.136Z,90.25
2023-01-10T13:31:45.763Z,90.19
2023-01-10T13:33:55.696Z,90.58
2023-01-10T13:36:08.809Z,89.95
2023-01-10T13:38:22.422Z,89.82
2023-01-10T13:40:28.474Z,89.33
2023-01-10T13:42:42.435Z,89.76
2023-01-10T13:45:03.646Z,88.97
2023-01-10T13:47:09.591Z,88.26
2023-01-10T13:49:11.957Z,87.79
2023-01-10T13:51:19.945Z,87.58
2023-01-10T13:53:22.341Z,87.67
2023-01-10T13:55:29.141Z,87.02
2023-01-10T13:57:50.202Z,86.26
2023-01-10T14:00:12.445Z,86.58
2023-01-10T14:02:28.465Z,86.25
2023-01-10T14:04:33.580Z,85.89
2023-01-10T14:06:41.360Z,85.62
2023-01-10T14:08:52.175Z,85.50
2023-01-10T14:11:03.488Z,85.12
2023-01-10T14:13:18.985Z,85.07
2023-01-10T14:15:26.606Z,84.27
2023-01-10T14:17:32.182Z,84.48
2023-01-10T14:19:34.801Z,83.90
2023-01-10T14:21:45.465Z,83.65
2023-01-10T14:23:51.205Z,83.23
2023-01-10T14:25:57.507Z,83.13
2023-01-10T14:28:00.966Z,83.40
2023-01-10T14:30:03.841Z,83.54
2023-01-10T14:32:28.174Z,83.42
2023-01-10T14:34:37.108Z,83.08
2023-01-10T14:36:49.954Z,83.71
2023-01-10T14:38:57.203Z,83.17
2023-01-10T14:41:06.440Z,83.71
2023-01-10T14:43:15.849Z,83.61
2023-01-10T14:45:29.709Z,83.00
2023-01-10T14:47:34.920Z,83.23
2023-01-10T14:49:49.694Z,82.97
2023-01-10T14:51:53.210Z,82.60
2023-01-10T14:53:56.678Z,83.04
2023-01-10T14:55:59.363Z,83.25
2023-01-10T14:58:02.464Z,82.72
2023-01-10T15:00:09.645Z,82.82
2023-01-10T15:02:25.741Z,82.85
2023-01-10T15:04:31.186Z,82.79
2023-01-10T15:06:52.537Z,83.64
2023-01-10T15:08:57.740Z,83.57
2023-01-10T15:11:06.854Z,83.45
2023-01-10T15:13:12.298Z,83.44
2023-01-10T15:15:19.351Z,83.07
2023-01-10T15:17:22.297Z,83.47
2023-01-10T15:19:25.636Z,83.66
2023-01-10T15:21:27.796Z,83.21
2023-01-10T15:23:39.116Z,84.22
2023-01-10T15:25:42.402Z,83.70
2023-01-10T15:27:47.368Z,83.84
2023-01-10T15:29:49.452Z,84.09
2023-01-10T15:31:55.513Z,83.75
2023-01-10T15:33:58.715Z,83.49
2023-01-10T15:36:07.387Z,83.98
2023-01-10T15:38:14.928Z,83.34
2023-01-10T15:40:22.833Z,83.48
2023-01-10T15:42:24.895Z,83.52
2023-01-10T15:44:40.074Z,83.08
2023-01-10T15:46:55.314Z,83.74
2023-01-10T15:49:01.714Z,83.43
2023-01-10T15:51:15.528Z,83.80
2023-01-10T15:53:17.527Z,83.89
2023-01-10T15:55:41.812Z,84.33
2023-01-10T15:57:43.941Z,84.22
2023-01-10T15:59:50.271Z,84.34
2023-01-10T16:01:59.086Z,84.02
2023-01-10T16:04:04.970Z,84.49
2023-01-10T16:06:10.105Z,84.29
2023-01-10T16:08:12.448Z,84.35
2023-01-10T16:10:25.992Z,83.81
2023-01-10T16:12:43.307Z,83.71
2023-01-10T16:14:45.313Z,83.83
2023-01-10T16:16:47.246Z,83.89
2023-01-10T16:18:49.344Z,83.34
2023-01-10T16:20:53.944Z,83.12
2023-01-10T16:22:56.879Z,82.76
2023-01-10T16:24:58.873Z,82.23
2023-01-10T16:27:06.075Z,81.76
2023-01-10T16:29:08.144Z,81.41
2023-01-10T16:31:12.796Z,81.33
2023-01-10T16:33:17.914Z,81.77
2023-01-10T16:35:20.460Z,81.39
2023-01-10T16:37:22.464Z,80.76
2023-01-10T16:39:24.541Z,80.92
2023-01-10T16:41:36.355Z,80.40
2023-01-10T16:43:38.280Z,79.86
2023-01-10T16:45:41.625Z,79.64
2023-01-10T16:47:43.695Z,79.51
2023-01-10T16:49:47.077Z,79.27
2023-01-10T16:51:49.226Z,79.67
2023-01-10T16:53:52.132Z,79.59
2023-01-10T16:55:54.183Z,79.51
2023-01-10T16:57:56.740Z,80.00
2023-01-10T16:59:58.660Z,79.88
2023-01-10T17:02:00.761Z,80.06
2023-01-10T17:04:04.403Z,79.87
2023-01-10T17:06:06.828Z,79.90
2023-01-10T17:08:16.453Z,80.27
2023-01-10T17:10:18.488Z,80.20
2023-01-10T17:12:20.746Z,79.35
2023-01-10T17:14:23.433Z,79.24
2023-01-10T17:16:25.581Z,79.19
2023-01-10T17:18:28.850Z,79.24
2023-01-10T17:20:31.029Z,79.18
2023-01-10T17:22:33.267Z,79.51
2023-01-10T17:24:36.306Z,79.75
2023-01-10T17:26:38.309Z,79.97
2023-01-10T17:28:41.457Z,79.88
2023-01-10T17:30:44.148Z,79.29
2023-01-10T17:32:46.137Z,79.01
2023-01-10T17:34:48.272Z,79.02
2023-01-10T17:36:50.273Z,79.56
2023-01-10T17:38:52.263Z,79.58
2023-01-10T17:40:54.872Z,79.89
2023-01-10T17:42:56.909Z,79.50
2023-01-10T17:44:58.912Z,79.97
2023-01-10T17:47:02.694Z,79.87
2023-01-10T17:49:04.931Z,80.24
2023-01-10T17:51:07.820Z,80.39
2023-01-10T17:53:10.472Z,80.35
2023-01-10T17:55:12.692Z,79.92
2023-01-10T17:57:15.142Z,80.89
2023-01-10T17:59:17.206Z,81.40
2023-01-10T18:01:24.827Z,81.88
2023-01-10T18:03:27.423Z,81.53
2023-01-10T18:05:29.369Z,81.63
2023-01-10T18:07:31.413Z,82.03
2023-01-10T18:09:33.361Z,82.10
2023-01-10T18:11:35.640Z,82.24
2023-01-10T18:13:37.715Z,82.34
2023-01-10T18:15:43.165Z,82.76
2023-01-10T18:17:45.957Z,82.79
2023-01-10T18:19:48.114Z,83.24
2023-01-10T18:21:50.129Z,83.31
2023-01-10T18:23:57.101Z,83.18
2023-01-10T18:26:03.336Z,83.65
2023-01-10T18:28:05.709Z,83.26
2023-01-10T18:30:08.748Z,84.00
2023-01-10T18:32:11.163Z,84.04
2023-01-10T18:34:13.136Z,84.69
2023-01-10T18:36:17.506Z,84.79
2023-01-10T18:38:19.627Z,85.36
2023-01-10T18:40:22.540Z,84.98
2023-01-10T18:42:24.546Z,85.45
2023-01-10T18:44:26.588Z,85.94
2023-01-10T18:46:29.217Z,85.52
2023-01-10T18:48:31.377Z,85.48
2023-01-10T18:50:33.467Z,86.44
2023-01-10T18:52:35.607Z,86.28
2023-01-10T18:54:37.538Z,85.54
2023-01-10T18:56:39.935Z,85.53
2023-01-10T18:58:42.972Z,85.40
2023-01-10T19:00:45.277Z,85.45
2023-01-10T19:02:47.593Z,85.44
2023-01-10T19:04:51.546Z,85.27
2023-01-10T19:06:55.557Z,84.90
2023-01-10T19:08:58.716Z,84.58
2023-01-10T19:11:12.977Z,84.62
2023-01-10T19:13:16.316Z,85.34
2023-01-10T19:15:18.462Z,84.78
2023-01-10T19:17:22.465Z,85.00
2023-01-10T19:19:24.604Z,85.22
2023-01-10T19:21:27.539Z,85.24
2023-01-10T19:23:30.646Z,85.59
2023-01-10T19:25:35.431Z,85.06
2023-01-10T19:27:37.476Z,85.08
2023-01-10T19:29:39.445Z,85.07
2023-01-10T19:31:42.595Z,85.22
2023-01-10T19:33:46.324Z,86.20
2023-01-10T19:35:48.393Z,85.43
2023-01-10T19:37:50.400Z,85.09
2023-01-10T19:39:52.546Z,84.90
2023-01-10T19:41:54.582Z,84.52
2023-01-10T19:43:58.271Z,85.01
2023-01-10T19:46:05.461Z,84.67
2023-01-10T19:48:07.567Z,83.85
2023-01-10T19:50:10.446Z,84.12
2023-01-10T19:52:12.517Z,84.42
2023-01-10T19:54:14.472Z,84.76
2023-01-10T19:56:22.070Z,84.89
2023-01-10T19:58:24.025Z,85.12
2023-01-10T20:00:26.145Z,84.67
2023-01-10T20:02:28.128Z,84.95
2023-01-10T20:04:30.128Z,84.66
2023-01-10T20:06:35.179Z,85.22
2023-01-10T20:08:37.136Z,86.18
2023-01-10T20:10:39.146Z,86.49
2023-01-10T20:12:41.145Z,86.39
2023-01-10T20:14:43.111Z,87.38
2023-01-10T20:16:46.046Z,87.24
2023-01-10T20:18:49.282Z,88.07
2023-01-10T20:20:51.307Z,88.31
2023-01-10T20:22:54.848Z,88.39
2023-01-10T20:27:04.561Z,88.70
2023-01-10T20:29:07.053Z,88.72
2023-01-10T20:31:13.157Z,89.62
2023-01-10T20:33:15.228Z,89.93
2023-01-10T20:35:22.178Z,89.33
2023-01-10T20:37:25.070Z,89.75
2023-01-10T20:39:27.291Z,89.50
2023-01-10T20:41:31.200Z,89.76
2023-01-10T20:43:33.590Z,90.05
2023-01-10T20:45:35.559Z,90.34
2023-01-10T20:47:37.561Z,90.40
2023-01-10T20:49:39.684Z,90.01
2023-01-10T20:51:41.624Z,89.94
2023-01-10T20:53:46.617Z,90.18
2023-01-10T20:55:59.090Z,89.66
2023-01-10T20:58:01.964Z,89.35
2023-01-10T21:00:05.003Z,88.51
2023-01-10T21:02:07.272Z,88.54
2023-01-10T21:04:09.391Z,88.59
2023-01-10T21:06:14.727Z,88.43
2023-01-10T21:08:18.307Z,87.96
2023-01-10T21:10:20.715Z,87.98
2023-01-10T21:12:26.776Z,88.12
2023-01-10T21:14:30.638Z,87.58
2023-01-10T21:16:32.854Z,87.82
2023-01-10T21:18:41.365Z,87.17
2023-01-10T21:20:44.935Z,86.82
2023-01-10T21:22:46.977Z,86.37
2023-01-10T21:24:50.244Z,86.76
2023-01-10T21:26:52.417Z,86.29
2023-01-10T21:28:55.216Z,86.37
2023-01-10T21:30:57.787Z,85.63
2023-01-10T21:33:00.826Z,85.27
2023-01-10T21:35:02.855Z,84.88
2023-01-10T21:37:04.967Z,84.90
2023-01-10T21:39:07.077Z,84.49
2023-01-10T21:41:14.277Z,84.41
2023-01-10T21:43:16.356Z,84.17
2023-01-10T21:45:19.185Z,84.26
2023-01-10T21:47:21.357Z,83.88
2023-01-10T21:49:23.547Z,84.19
2023-01-10T21:51:25.530Z,83.56
2023-01-10T21:53:28.808Z,83.54
2023-01-10T21:55:31.029Z,83.25
2023-01-10T21:57:33.055Z,82.81
2023-01-10T21:59:39.540Z,82.54
2023-01-10T22:01:41.589Z,83.03
2023-01-10T22:03:45.908Z,82.98
2023-01-10T22:05:48.023Z,83.03
2023-01-10T22:07:50.031Z,83.13
2023-01-10T22:09:52.517Z,82.73
2023-01-10T22:11:54.566Z,83.79
2023-01-10T22:13:57.623Z,83.70
2023-01-10T22:16:01.563Z,85.02
2023-01-10T22:18:03.815Z,84.41
2023-01-10T22:20:06.824Z,84.57
2023-01-10T22:22:09.713Z,84.67
2023-01-10T22:24:12.265Z,85.07
2023-01-10T22:26:16.286Z,85.51
2023-01-10T22:28:18.496Z,85.09
2023-01-10T22:30:20.676Z,84.86
2023-01-10T22:32:22.911Z,85.11
2023-01-10T22:34:24.905Z,84.22
2023-01-10T22:36:27.183Z,83.38
2023-01-10T22:38:30.093Z,82.47
2023-01-10T22:40:32.144Z,81.63
2023-01-10T22:42:34.563Z,81.21
2023-01-10T22:44:36.640Z,80.69
2023-01-10T22:46:38.716Z,80.58
2023-01-10T22:48:40.804Z,80.21
2023-01-10T22:50:49.301Z,80.02
2023-01-10T22:52:51.784Z,78.44
2023-01-10T22:54:53.829Z,76.85
2023-01-10T22:56:55.902Z,76.07
2023-01-10T22:58:57.927Z,75.36
2023-01-10T23:01:02.704Z,74.25
2023-01-10T23:03:04.794Z,73.95
2023-01-10T23:05:07.541Z,74.28
2023-01-10T23:07:11.072Z,73.85
2023-01-10T23:09:13.184Z,73.57
2023-01-10T23:11:17.360Z,72.24
2023-01-10T23:13:19.606Z,71.76
2023-01-10T23:15:21.621Z,71.00
2023-01-10T23:17:23.993Z,70.84
2023-01-10T23:19:26.095Z,71.42
2023-01-10T23:21:29.537Z,71.47
2023-01-10T23:23:32.040Z,71.04
2023-01-10T23:25:34.075Z,71.73
2023-01-10T23:27:36.205Z,71.66
2023-01-10T23:29:38.197Z,71.54
2023-01-10T23:31:40.179Z,70.94
2023-01-10T23:33:42.192Z,71.38
2023-01-10T23:35:44.102Z,71.30
2023-01-10T23:37:46.060Z,70.84
2023-01-10T23:39:48.193Z,70.20
2023-01-10T23:41:50.315Z,70.70
2023-01-10T23:43:52.319Z,70.13
2023-01-10T23:45:54.453Z,70.19
2023-01-10T23:47:56.492Z,70.39
2023-01-10T23:49:58.578Z,70.15
2023-01-10T23:52:00.558Z,70.24
2023-01-10T23:54:02.576Z,69.84
2023-01-10T23:56:07.352Z,69.97
2023-01-10T23:58:09.395Z,70.05
